Terminal Aerodrome Forecast
Issued by NWS

Home | Current Version | Previous Version | Text Only | Print | Product List | Glossary On
Versions: 1 2 3 4 5 6 7 8 9 10 11 12 13 14 15 16 17 18 19 20 21 22 23 24 25 26 27 28 29 30 31 32 33
623
FTAK31 PANC 261139
TAFADU
TAF
PADU 261139Z 2612/2712 VRB05KT P6SM VCSH SCT030 OVC040
      TEMPO 2612/2615 P6SM -SHRA BKN030 OVC040
     FM261500 VRB05KT P6SM -SHRA SCT020 OVC030
     FM262100 16006KT P6SM -SHRA SCT035 BKN050
     FM270400 17005KT P6SM -SHRA BKN025 OVC035=

USA.gov is the U.S. government's official web portal to all federal, state and local government web resources and services.